sensor_id;sensor_type;location;lat;lon;timestamp;temperature;humidity
70830;SHT30;58451;51.550;7.208;2024-01-11T00:00:47;-5.22;74.67
70830;SHT30;58451;51.550;7.208;2024-01-11T00:02:19;-5.24;74.65
70830;SHT30;58451;51.550;7.208;2024-01-11T00:03:51;-5.24;74.67
70830;SHT30;58451;51.550;7.208;2024-01-11T00:05:22;-5.28;74.70
70830;SHT30;58451;51.550;7.208;2024-01-11T00:06:54;-5.29;74.70
70830;SHT30;58451;51.550;7.208;2024-01-11T00:08:26;-5.31;74.75
70830;SHT30;58451;51.550;7.208;2024-01-11T00:09:58;-5.32;74.78
70830;SHT30;58451;51.550;7.208;2024-01-11T00:11:33;-5.35;74.77
70830;SHT30;58451;51.550;7.208;2024-01-11T00:13:06;-5.36;74.77
70830;SHT30;58451;51.550;7.208;2024-01-11T00:14:37;-5.37;74.80
70830;SHT30;58451;51.550;7.208;2024-01-11T00:16:09;-5.39;74.80
70830;SHT30;58451;51.550;7.208;2024-01-11T00:17:41;-5.43;74.83
70830;SHT30;58451;51.550;7.208;2024-01-11T00:19:13;-5.44;74.85
70830;SHT30;58451;51.550;7.208;2024-01-11T00:20:45;-5.45;74.90
70830;SHT30;58451;51.550;7.208;2024-01-11T00:22:17;-5.46;74.90
70830;SHT30;58451;51.550;7.208;2024-01-11T00:23:49;-5.48;74.92
70830;SHT30;58451;51.550;7.208;2024-01-11T00:25:21;-5.51;74.90
70830;SHT30;58451;51.550;7.208;2024-01-11T00:26:53;-5.53;74.92
70830;SHT30;58451;51.550;7.208;2024-01-11T00:28:25;-5.54;75.00
70830;SHT30;58451;51.550;7.208;2024-01-11T00:29:56;-5.57;75.02
70830;SHT30;58451;51.550;7.208;2024-01-11T00:31:28;-5.59;74.98
70830;SHT30;58451;51.550;7.208;2024-01-11T00:33:00;-5.59;75.02
70830;SHT30;58451;51.550;7.208;2024-01-11T00:34:32;-5.62;75.07
70830;SHT30;58451;51.550;7.208;2024-01-11T00:36:04;-5.62;75.10
70830;SHT30;58451;51.550;7.208;2024-01-11T00:37:36;-5.65;75.13
70830;SHT30;58451;51.550;7.208;2024-01-11T00:39:08;-5.66;75.15
70830;SHT30;58451;51.550;7.208;2024-01-11T00:40:40;-5.67;75.35
70830;SHT30;58451;51.550;7.208;2024-01-11T00:42:12;-5.68;75.37
70830;SHT30;58451;51.550;7.208;2024-01-11T00:43:44;-5.70;75.30
70830;SHT30;58451;51.550;7.208;2024-01-11T00:45:15;-5.70;75.33
70830;SHT30;58451;51.550;7.208;2024-01-11T00:46:48;-5.72;75.33
70830;SHT30;58451;51.550;7.208;2024-01-11T00:48:20;-5.75;75.35
70830;SHT30;58451;51.550;7.208;2024-01-11T00:49:59;-5.75;75.40
70830;SHT30;58451;51.550;7.208;2024-01-11T00:51:31;-5.77;75.40
70830;SHT30;58451;51.550;7.208;2024-01-11T00:53:03;-5.79;75.42
70830;SHT30;58451;51.550;7.208;2024-01-11T00:54:35;-5.80;75.42
70830;SHT30;58451;51.550;7.208;2024-01-11T00:56:28;-5.82;75.42
70830;SHT30;58451;51.550;7.208;2024-01-11T00:57:59;-5.85;75.43
70830;SHT30;58451;51.550;7.208;2024-01-11T00:59:31;-5.86;75.48
70830;SHT30;58451;51.550;7.208;2024-01-11T01:01:02;-5.88;75.50
70830;SHT30;58451;51.550;7.208;2024-01-11T01:02:40;-5.91;75.55
70830;SHT30;58451;51.550;7.208;2024-01-11T01:04:12;-5.92;75.52
70830;SHT30;58451;51.550;7.208;2024-01-11T01:05:44;-5.94;75.62
70830;SHT30;58451;51.550;7.208;2024-01-11T01:07:17;-5.95;75.60
70830;SHT30;58451;51.550;7.208;2024-01-11T01:08:49;-5.96;75.68
70830;SHT30;58451;51.550;7.208;2024-01-11T01:10:21;-5.96;75.73
70830;SHT30;58451;51.550;7.208;2024-01-11T01:11:53;-5.98;75.72
70830;SHT30;58451;51.550;7.208;2024-01-11T01:13:25;-5.99;75.70
70830;SHT30;58451;51.550;7.208;2024-01-11T01:14:57;-6.01;75.77
70830;SHT30;58451;51.550;7.208;2024-01-11T01:16:28;-6.03;75.70
70830;SHT30;58451;51.550;7.208;2024-01-11T01:18:00;-6.04;75.83
70830;SHT30;58451;51.550;7.208;2024-01-11T01:19:33;-6.06;75.90
70830;SHT30;58451;51.550;7.208;2024-01-11T01:21:05;-6.07;75.90
70830;SHT30;58451;51.550;7.208;2024-01-11T01:22:38;-6.09;75.93
70830;SHT30;58451;51.550;7.208;2024-01-11T01:24:10;-6.12;75.88
70830;SHT30;58451;51.550;7.208;2024-01-11T01:25:42;-6.13;75.92
70830;SHT30;58451;51.550;7.208;2024-01-11T01:27:14;-6.16;76.00
70830;SHT30;58451;51.550;7.208;2024-01-11T01:28:45;-6.17;76.13
70830;SHT30;58451;51.550;7.208;2024-01-11T01:30:17;-6.17;76.23
70830;SHT30;58451;51.550;7.208;2024-01-11T01:31:49;-6.19;76.27
70830;SHT30;58451;51.550;7.208;2024-01-11T01:33:21;-6.20;76.28
70830;SHT30;58451;51.550;7.208;2024-01-11T01:34:53;-6.21;76.30
70830;SHT30;58451;51.550;7.208;2024-01-11T01:36:25;-6.22;76.27
70830;SHT30;58451;51.550;7.208;2024-01-11T01:37:56;-6.23;76.30
70830;SHT30;58451;51.550;7.208;2024-01-11T01:39:28;-6.24;76.30
70830;SHT30;58451;51.550;7.208;2024-01-11T01:41:00;-6.26;76.33
70830;SHT30;58451;51.550;7.208;2024-01-11T01:42:32;-6.28;76.35
70830;SHT30;58451;51.550;7.208;2024-01-11T01:44:05;-6.29;76.40
70830;SHT30;58451;51.550;7.208;2024-01-11T01:45:37;-6.30;76.40
70830;SHT30;58451;51.550;7.208;2024-01-11T01:47:09;-6.31;76.40
70830;SHT30;58451;51.550;7.208;2024-01-11T01:48:42;-6.32;76.50
70830;SHT30;58451;51.550;7.208;2024-01-11T01:50:14;-6.34;76.50
70830;SHT30;58451;51.550;7.208;2024-01-11T01:51:46;-6.35;76.50
70830;SHT30;58451;51.550;7.208;2024-01-11T01:53:19;-6.35;76.57
70830;SHT30;58451;51.550;7.208;2024-01-11T01:54:53;-6.35;76.62
70830;SHT30;58451;51.550;7.208;2024-01-11T01:56:28;-6.36;76.68
70830;SHT30;58451;51.550;7.208;2024-01-11T01:58:02;-6.37;76.65
70830;SHT30;58451;51.550;7.208;2024-01-11T01:59:36;-6.39;76.62
70830;SHT30;58451;51.550;7.208;2024-01-11T02:01:09;-6.40;76.63
70830;SHT30;58451;51.550;7.208;2024-01-11T02:02:43;-6.42;76.68
70830;SHT30;58451;51.550;7.208;2024-01-11T02:04:19;-6.43;76.70
70830;SHT30;58451;51.550;7.208;2024-01-11T02:05:51;-6.45;76.70
70830;SHT30;58451;51.550;7.208;2024-01-11T02:07:25;-6.47;76.70
70830;SHT30;58451;51.550;7.208;2024-01-11T02:08:57;-6.47;76.72
70830;SHT30;58451;51.550;7.208;2024-01-11T02:10:30;-6.49;76.72
70830;SHT30;58451;51.550;7.208;2024-01-11T02:12:04;-6.48;76.80
70830;SHT30;58451;51.550;7.208;2024-01-11T02:13:37;-6.50;76.80
70830;SHT30;58451;51.550;7.208;2024-01-11T02:15:09;-6.50;76.82
70830;SHT30;58451;51.550;7.208;2024-01-11T02:16:41;-6.51;76.90
70830;SHT30;58451;51.550;7.208;2024-01-11T02:18:13;-6.51;76.90
70830;SHT30;58451;51.550;7.208;2024-01-11T02:19:46;-6.51;76.90
70830;SHT30;58451;51.550;7.208;2024-01-11T02:21:18;-6.52;76.90
70830;SHT30;58451;51.550;7.208;2024-01-11T02:22:53;-6.52;76.95
70830;SHT30;58451;51.550;7.208;2024-01-11T02:24:30;-6.53;76.98
70830;SHT30;58451;51.550;7.208;2024-01-11T02:26:02;-6.54;76.98
70830;SHT30;58451;51.550;7.208;2024-01-11T02:27:47;-6.54;77.00
70830;SHT30;58451;51.550;7.208;2024-01-11T02:29:20;-6.57;77.00
70830;SHT30;58451;51.550;7.208;2024-01-11T02:30:52;-6.58;77.00
70830;SHT30;58451;51.550;7.208;2024-01-11T02:32:24;-6.59;77.07
70830;SHT30;58451;51.550;7.208;2024-01-11T02:33:56;-6.59;77.08
70830;SHT30;58451;51.550;7.208;2024-01-11T02:35:28;-6.60;77.10
70830;SHT30;58451;51.550;7.208;2024-01-11T02:37:00;-6.60;77.12
70830;SHT30;58451;51.550;7.208;2024-01-11T02:38:32;-6.61;77.10
70830;SHT30;58451;51.550;7.208;2024-01-11T02:40:07;-6.62;77.12
70830;SHT30;58451;51.550;7.208;2024-01-11T02:41:40;-6.63;77.17
70830;SHT30;58451;51.550;7.208;2024-01-11T02:43:12;-6.62;77.20
70830;SHT30;58451;51.550;7.208;2024-01-11T02:44:44;-6.63;77.20
70830;SHT30;58451;51.550;7.208;2024-01-11T02:46:16;-6.63;77.20
70830;SHT30;58451;51.550;7.208;2024-01-11T02:47:48;-6.63;77.23
70830;SHT30;58451;51.550;7.208;2024-01-11T02:49:21;-6.64;77.27
70830;SHT30;58451;51.550;7.208;2024-01-11T02:50:53;-6.64;77.33
70830;SHT30;58451;51.550;7.208;2024-01-11T02:52:25;-6.64;77.33
70830;SHT30;58451;51.550;7.208;2024-01-11T02:53:56;-6.64;77.33
70830;SHT30;58451;51.550;7.208;2024-01-11T02:55:29;-6.64;77.33
70830;SHT30;58451;51.550;7.208;2024-01-11T02:57:01;-6.65;77.40
70830;SHT30;58451;51.550;7.208;2024-01-11T02:58:32;-6.65;77.40
70830;SHT30;58451;51.550;7.208;2024-01-11T03:00:05;-6.65;77.43
70830;SHT30;58451;51.550;7.208;2024-01-11T03:01:37;-6.65;77.40
70830;SHT30;58451;51.550;7.208;2024-01-11T03:03:12;-6.66;77.40
70830;SHT30;58451;51.550;7.208;2024-01-11T03:04:44;-6.67;77.40
70830;SHT30;58451;51.550;7.208;2024-01-11T03:06:16;-6.67;77.47
70830;SHT30;58451;51.550;7.208;2024-01-11T03:07:53;-6.68;77.50
70830;SHT30;58451;51.550;7.208;2024-01-11T03:09:25;-6.68;77.48
70830;SHT30;58451;51.550;7.208;2024-01-11T03:10:56;-6.69;77.47
70830;SHT30;58451;51.550;7.208;2024-01-11T03:12:28;-6.70;77.47
70830;SHT30;58451;51.550;7.208;2024-01-11T03:14:00;-6.72;77.50
70830;SHT30;58451;51.550;7.208;2024-01-11T03:15:33;-6.72;77.50
70830;SHT30;58451;51.550;7.208;2024-01-11T03:17:05;-6.74;77.50
70830;SHT30;58451;51.550;7.208;2024-01-11T03:18:37;-6.74;77.50
70830;SHT30;58451;51.550;7.208;2024-01-11T03:20:09;-6.76;77.55
70830;SHT30;58451;51.550;7.208;2024-01-11T03:21:43;-6.76;77.50
70830;SHT30;58451;51.550;7.208;2024-01-11T03:23:15;-6.79;77.52
70830;SHT30;58451;51.550;7.208;2024-01-11T03:24:47;-6.80;77.52
70830;SHT30;58451;51.550;7.208;2024-01-11T03:26:19;-6.81;77.50
70830;SHT30;58451;51.550;7.208;2024-01-11T03:27:51;-6.83;77.50
70830;SHT30;58451;51.550;7.208;2024-01-11T03:29:23;-6.84;77.57
70830;SHT30;58451;51.550;7.208;2024-01-11T03:30:55;-6.86;77.57
70830;SHT30;58451;51.550;7.208;2024-01-11T03:32:27;-6.88;77.58
70830;SHT30;58451;51.550;7.208;2024-01-11T03:33:59;-6.87;77.58
70830;SHT30;58451;51.550;7.208;2024-01-11T03:35:31;-6.88;77.60
70830;SHT30;58451;51.550;7.208;2024-01-11T03:37:03;-6.91;77.60
70830;SHT30;58451;51.550;7.208;2024-01-11T03:38:35;-6.91;77.60
70830;SHT30;58451;51.550;7.208;2024-01-11T03:40:07;-6.92;77.68
70830;SHT30;58451;51.550;7.208;2024-01-11T03:41:43;-6.93;77.70
70830;SHT30;58451;51.550;7.208;2024-01-11T03:43:19;-6.94;77.68
70830;SHT30;58451;51.550;7.208;2024-01-11T03:44:53;-6.96;77.70
70830;SHT30;58451;51.550;7.208;2024-01-11T03:46:25;-6.97;77.80
70830;SHT30;58451;51.550;7.208;2024-01-11T03:47:57;-6.99;77.80
70830;SHT30;58451;51.550;7.208;2024-01-11T03:49:29;-6.99;77.90
70830;SHT30;58451;51.550;7.208;2024-01-11T03:51:01;-6.99;77.92
70830;SHT30;58451;51.550;7.208;2024-01-11T03:52:33;-6.99;77.92
70830;SHT30;58451;51.550;7.208;2024-01-11T03:54:04;-7.03;77.90
70830;SHT30;58451;51.550;7.208;2024-01-11T03:55:36;-7.03;77.90
70830;SHT30;58451;51.550;7.208;2024-01-11T03:57:08;-7.03;77.90
70830;SHT30;58451;51.550;7.208;2024-01-11T03:58:40;-7.05;77.92
70830;SHT30;58451;51.550;7.208;2024-01-11T04:00:13;-7.06;77.90
70830;SHT30;58451;51.550;7.208;2024-01-11T04:01:45;-7.07;77.90
70830;SHT30;58451;51.550;7.208;2024-01-11T04:03:17;-7.09;77.93
70830;SHT30;58451;51.550;7.208;2024-01-11T04:04:49;-7.09;78.00
70830;SHT30;58451;51.550;7.208;2024-01-11T04:06:21;-7.09;78.03
70830;SHT30;58451;51.550;7.208;2024-01-11T04:07:55;-7.09;78.07
70830;SHT30;58451;51.550;7.208;2024-01-11T04:09:27;-7.11;78.05
70830;SHT30;58451;51.550;7.208;2024-01-11T04:11:01;-7.13;78.10
70830;SHT30;58451;51.550;7.208;2024-01-11T04:12:36;-7.11;78.10
70830;SHT30;58451;51.550;7.208;2024-01-11T04:14:08;-7.14;78.12
70830;SHT30;58451;51.550;7.208;2024-01-11T04:15:40;-7.14;78.10
70830;SHT30;58451;51.550;7.208;2024-01-11T04:17:12;-7.16;78.15
70830;SHT30;58451;51.550;7.208;2024-01-11T04:18:44;-7.17;78.10
70830;SHT30;58451;51.550;7.208;2024-01-11T04:20:16;-7.18;78.10
70830;SHT30;58451;51.550;7.208;2024-01-11T04:21:48;-7.20;78.10
70830;SHT30;58451;51.550;7.208;2024-01-11T04:23:20;-7.20;78.20
70830;SHT30;58451;51.550;7.208;2024-01-11T04:24:52;-7.21;78.20
70830;SHT30;58451;51.550;7.208;2024-01-11T04:26:24;-7.22;78.28
70830;SHT30;58451;51.550;7.208;2024-01-11T04:27:56;-7.20;78.25
70830;SHT30;58451;51.550;7.208;2024-01-11T04:29:28;-7.22;78.25
70830;SHT30;58451;51.550;7.208;2024-01-11T04:31:00;-7.23;78.22
70830;SHT30;58451;51.550;7.208;2024-01-11T04:32:31;-7.24;78.22
70830;SHT30;58451;51.550;7.208;2024-01-11T04:34:03;-7.25;78.28
70830;SHT30;58451;51.550;7.208;2024-01-11T04:35:36;-7.25;78.25
70830;SHT30;58451;51.550;7.208;2024-01-11T04:37:08;-7.26;78.28
70830;SHT30;58451;51.550;7.208;2024-01-11T04:38:40;-7.27;78.30
70830;SHT30;58451;51.550;7.208;2024-01-11T04:40:12;-7.27;78.32
70830;SHT30;58451;51.550;7.208;2024-01-11T04:41:44;-7.29;78.30
70830;SHT30;58451;51.550;7.208;2024-01-11T04:43:16;-7.29;78.30
70830;SHT30;58451;51.550;7.208;2024-01-11T04:44:48;-7.31;78.34
70830;SHT30;58451;51.550;7.208;2024-01-11T04:46:20;-7.31;78.40
70830;SHT30;58451;51.550;7.208;2024-01-11T04:47:54;-7.31;78.43
70830;SHT30;58451;51.550;7.208;2024-01-11T04:49:26;-7.31;78.40
70830;SHT30;58451;51.550;7.208;2024-01-11T04:50:58;-7.31;78.50
70830;SHT30;58451;51.550;7.208;2024-01-11T04:52:29;-7.31;78.53
70830;SHT30;58451;51.550;7.208;2024-01-11T04:54:01;-7.30;78.48
70830;SHT30;58451;51.550;7.208;2024-01-11T04:55:33;-7.31;78.48
70830;SHT30;58451;51.550;7.208;2024-01-11T04:57:05;-7.31;78.50
70830;SHT30;58451;51.550;7.208;2024-01-11T04:58:38;-7.32;78.48
70830;SHT30;58451;51.550;7.208;2024-01-11T05:00:12;-7.33;78.50
70830;SHT30;58451;51.550;7.208;2024-01-11T05:01:45;-7.33;78.50
70830;SHT30;58451;51.550;7.208;2024-01-11T05:03:18;-7.31;78.50
70830;SHT30;58451;51.550;7.208;2024-01-11T05:04:49;-7.32;78.55
70830;SHT30;58451;51.550;7.208;2024-01-11T05:06:22;-7.33;78.60
70830;SHT30;58451;51.550;7.208;2024-01-11T05:07:54;-7.33;78.60
70830;SHT30;58451;51.550;7.208;2024-01-11T05:09:26;-7.34;78.60
70830;SHT30;58451;51.550;7.208;2024-01-11T05:10:57;-7.34;78.67
70830;SHT30;58451;51.550;7.208;2024-01-11T05:12:29;-7.34;78.78
70830;SHT30;58451;51.550;7.208;2024-01-11T05:14:01;-7.32;78.80
70830;SHT30;58451;51.550;7.208;2024-01-11T05:15:34;-7.31;78.78
70830;SHT30;58451;51.550;7.208;2024-01-11T05:17:06;-7.30;78.97
70830;SHT30;58451;51.550;7.208;2024-01-11T05:18:39;-7.28;79.12
70830;SHT30;58451;51.550;7.208;2024-01-11T05:20:11;-7.26;79.03
70830;SHT30;58451;51.550;7.208;2024-01-11T05:21:43;-7.25;78.95
70830;SHT30;58451;51.550;7.208;2024-01-11T05:23:15;-7.23;79.03
70830;SHT30;58451;51.550;7.208;2024-01-11T05:24:46;-7.22;79.12
70830;SHT30;58451;51.550;7.208;2024-01-11T05:26:19;-7.20;79.08
70830;SHT30;58451;51.550;7.208;2024-01-11T05:27:52;-7.20;79.10
70830;SHT30;58451;51.550;7.208;2024-01-11T05:29:24;-7.16;79.20
70830;SHT30;58451;51.550;7.208;2024-01-11T05:30:56;-7.16;79.13
70830;SHT30;58451;51.550;7.208;2024-01-11T05:32:28;-7.16;79.07
70830;SHT30;58451;51.550;7.208;2024-01-11T05:34:00;-7.14;79.10
70830;SHT30;58451;51.550;7.208;2024-01-11T05:35:32;-7.14;79.15
70830;SHT30;58451;51.550;7.208;2024-01-11T05:37:04;-7.12;79.15
70830;SHT30;58451;51.550;7.208;2024-01-11T05:38:37;-7.11;79.25
70830;SHT30;58451;51.550;7.208;2024-01-11T05:40:11;-7.10;79.13
70830;SHT30;58451;51.550;7.208;2024-01-11T05:41:43;-7.09;79.13
70830;SHT30;58451;51.550;7.208;2024-01-11T05:43:16;-7.08;79.13
70830;SHT30;58451;51.550;7.208;2024-01-11T05:44:48;-7.09;79.07
70830;SHT30;58451;51.550;7.208;2024-01-11T05:46:20;-7.09;79.08
70830;SHT30;58451;51.550;7.208;2024-01-11T05:47:52;-7.09;79.02
70830;SHT30;58451;51.550;7.208;2024-01-11T05:49:24;-7.09;79.00
70830;SHT30;58451;51.550;7.208;2024-01-11T05:50:56;-7.08;79.00
70830;SHT30;58451;51.550;7.208;2024-01-11T05:52:28;-7.09;79.00
70830;SHT30;58451;51.550;7.208;2024-01-11T05:53:59;-7.09;79.00
70830;SHT30;58451;51.550;7.208;2024-01-11T05:55:31;-7.12;79.00
70830;SHT30;58451;51.550;7.208;2024-01-11T05:57:03;-7.12;79.00
70830;SHT30;58451;51.550;7.208;2024-01-11T05:58:36;-7.13;79.00
70830;SHT30;58451;51.550;7.208;2024-01-11T06:00:09;-7.13;79.00
70830;SHT30;58451;51.550;7.208;2024-01-11T06:01:41;-7.14;79.03
70830;SHT30;58451;51.550;7.208;2024-01-11T06:03:16;-7.15;79.00
70830;SHT30;58451;51.550;7.208;2024-01-11T06:04:48;-7.15;79.00
70830;SHT30;58451;51.550;7.208;2024-01-11T06:06:20;-7.16;79.00
70830;SHT30;58451;51.550;7.208;2024-01-11T06:07:52;-7.16;79.00
70830;SHT30;58451;51.550;7.208;2024-01-11T06:09:24;-7.15;79.00
70830;SHT30;58451;51.550;7.208;2024-01-11T06:10:56;-7.15;79.00
70830;SHT30;58451;51.550;7.208;2024-01-11T06:12:29;-7.16;79.00
70830;SHT30;58451;51.550;7.208;2024-01-11T06:14:01;-7.17;79.00
70830;SHT30;58451;51.550;7.208;2024-01-11T06:15:34;-7.18;79.00
70830;SHT30;58451;51.550;7.208;2024-01-11T06:17:06;-7.18;79.00
70830;SHT30;58451;51.550;7.208;2024-01-11T06:18:38;-7.18;78.98
70830;SHT30;58451;51.550;7.208;2024-01-11T06:20:10;-7.17;79.00
70830;SHT30;58451;51.550;7.208;2024-01-11T06:21:43;-7.18;78.90
70830;SHT30;58451;51.550;7.208;2024-01-11T06:23:14;-7.18;78.97
70830;SHT30;58451;51.550;7.208;2024-01-11T06:24:48;-7.18;78.98
70830;SHT30;58451;51.550;7.208;2024-01-11T06:26:20;-7.20;78.95
70830;SHT30;58451;51.550;7.208;2024-01-11T06:27:52;-7.21;78.93
70830;SHT30;58451;51.550;7.208;2024-01-11T06:29:24;-7.21;79.00
70830;SHT30;58451;51.550;7.208;2024-01-11T06:30:56;-7.20;79.00
70830;SHT30;58451;51.550;7.208;2024-01-11T06:32:28;-7.19;79.10
70830;SHT30;58451;51.550;7.208;2024-01-11T06:34:00;-7.17;79.20
70830;SHT30;58451;51.550;7.208;2024-01-11T06:35:31;-7.16;79.30
70830;SHT30;58451;51.550;7.208;2024-01-11T06:37:03;-7.14;79.23
70830;SHT30;58451;51.550;7.208;2024-01-11T06:38:35;-7.12;79.23
70830;SHT30;58451;51.550;7.208;2024-01-11T06:40:07;-7.10;79.20
70830;SHT30;58451;51.550;7.208;2024-01-11T06:41:40;-7.10;79.17
70830;SHT30;58451;51.550;7.208;2024-01-11T06:43:12;-7.08;79.13
70830;SHT30;58451;51.550;7.208;2024-01-11T06:44:44;-7.08;79.10
70830;SHT30;58451;51.550;7.208;2024-01-11T06:46:19;-7.08;79.00
70830;SHT30;58451;51.550;7.208;2024-01-11T06:47:52;-7.09;79.02
70830;SHT30;58451;51.550;7.208;2024-01-11T06:49:24;-7.11;79.02
70830;SHT30;58451;51.550;7.208;2024-01-11T06:50:56;-7.11;79.10
70830;SHT30;58451;51.550;7.208;2024-01-11T06:52:32;-7.11;79.13
70830;SHT30;58451;51.550;7.208;2024-01-11T06:54:03;-7.11;79.27
70830;SHT30;58451;51.550;7.208;2024-01-11T06:55:38;-7.12;79.40
70830;SHT30;58451;51.550;7.208;2024-01-11T06:57:12;-7.11;79.28
70830;SHT30;58451;51.550;7.208;2024-01-11T06:58:44;-7.10;79.25
70830;SHT30;58451;51.550;7.208;2024-01-11T07:00:17;-7.10;79.30
70830;SHT30;58451;51.550;7.208;2024-01-11T07:01:49;-7.10;79.35
70830;SHT30;58451;51.550;7.208;2024-01-11T07:03:21;-7.10;79.33
70830;SHT30;58451;51.550;7.208;2024-01-11T07:04:53;-7.11;79.33
70830;SHT30;58451;51.550;7.208;2024-01-11T07:06:25;-7.10;79.30
70830;SHT30;58451;51.550;7.208;2024-01-11T07:07:56;-7.11;79.30
70830;SHT30;58451;51.550;7.208;2024-01-11T07:09:28;-7.12;79.25
70830;SHT30;58451;51.550;7.208;2024-01-11T07:11:00;-7.11;79.30
70830;SHT30;58451;51.550;7.208;2024-01-11T07:12:34;-7.11;79.35
70830;SHT30;58451;51.550;7.208;2024-01-11T07:14:09;-7.10;79.35
70830;SHT30;58451;51.550;7.208;2024-01-11T07:15:41;-7.09;79.40
70830;SHT30;58451;51.550;7.208;2024-01-11T07:17:13;-7.08;79.43
70830;SHT30;58451;51.550;7.208;2024-01-11T07:18:44;-7.07;79.42
70830;SHT30;58451;51.550;7.208;2024-01-11T07:20:16;-7.06;79.50
70830;SHT30;58451;51.550;7.208;2024-01-11T07:21:50;-7.05;79.48
70830;SHT30;58451;51.550;7.208;2024-01-11T07:23:22;-7.04;79.50
70830;SHT30;58451;51.550;7.208;2024-01-11T07:24:54;-7.03;79.48
70830;SHT30;58451;51.550;7.208;2024-01-11T07:26:26;-7.01;79.42
70830;SHT30;58451;51.550;7.208;2024-01-11T07:27:58;-7.01;79.40
70830;SHT30;58451;51.550;7.208;2024-01-11T07:29:30;-7.02;79.45
70830;SHT30;58451;51.550;7.208;2024-01-11T07:31:02;-7.02;79.50
70830;SHT30;58451;51.550;7.208;2024-01-11T07:32:34;-7.02;79.47
70830;SHT30;58451;51.550;7.208;2024-01-11T07:34:06;-7.01;79.43
70830;SHT30;58451;51.550;7.208;2024-01-11T07:35:38;-7.01;79.40
70830;SHT30;58451;51.550;7.208;2024-01-11T07:37:10;-7.01;79.40
70830;SHT30;58451;51.550;7.208;2024-01-11T07:38:42;-7.01;79.37
70830;SHT30;58451;51.550;7.208;2024-01-11T07:40:14;-7.01;79.33
70830;SHT30;58451;51.550;7.208;2024-01-11T07:41:45;-7.01;79.30
70830;SHT30;58451;51.550;7.208;2024-01-11T07:43:18;-7.01;79.32
70830;SHT30;58451;51.550;7.208;2024-01-11T07:44:50;-6.99;79.30
70830;SHT30;58451;51.550;7.208;2024-01-11T07:46:21;-6.99;79.28
70830;SHT30;58451;51.550;7.208;2024-01-11T07:48:09;-7.00;79.20
70830;SHT30;58451;51.550;7.208;2024-01-11T07:49:41;-6.99;79.28
70830;SHT30;58451;51.550;7.208;2024-01-11T07:51:13;-6.97;79.27
70830;SHT30;58451;51.550;7.208;2024-01-11T07:52:46;-6.97;79.27
70830;SHT30;58451;51.550;7.208;2024-01-11T07:54:18;-6.96;79.30
70830;SHT30;58451;51.550;7.208;2024-01-11T07:55:49;-6.95;79.27
70830;SHT30;58451;51.550;7.208;2024-01-11T07:57:22;-6.94;79.25
70830;SHT30;58451;51.550;7.208;2024-01-11T07:58:54;-6.92;79.22
70830;SHT30;58451;51.550;7.208;2024-01-11T08:00:26;-6.91;79.23
70830;SHT30;58451;51.550;7.208;2024-01-11T08:01:58;-6.87;79.27
70830;SHT30;58451;51.550;7.208;2024-01-11T08:03:30;-6.84;79.22
70830;SHT30;58451;51.550;7.208;2024-01-11T08:05:02;-6.82;79.27
70830;SHT30;58451;51.550;7.208;2024-01-11T08:06:35;-6.79;79.23
70830;SHT30;58451;51.550;7.208;2024-01-11T08:08:07;-6.76;79.22
70830;SHT30;58451;51.550;7.208;2024-01-11T08:09:38;-6.73;79.22
70830;SHT30;58451;51.550;7.208;2024-01-11T08:11:16;-6.70;79.30
70830;SHT30;58451;51.550;7.208;2024-01-11T08:12:50;-6.67;79.25
70830;SHT30;58451;51.550;7.208;2024-01-11T08:14:21;-6.64;79.27
70830;SHT30;58451;51.550;7.208;2024-01-11T08:15:53;-6.60;79.35
70830;SHT30;58451;51.550;7.208;2024-01-11T08:17:25;-6.57;79.52
70830;SHT30;58451;51.550;7.208;2024-01-11T08:18:57;-6.52;79.58
70830;SHT30;58451;51.550;7.208;2024-01-11T08:20:29;-6.48;79.58
70830;SHT30;58451;51.550;7.208;2024-01-11T08:22:01;-6.45;79.65
70830;SHT30;58451;51.550;7.208;2024-01-11T08:23:33;-6.41;79.62
70830;SHT30;58451;51.550;7.208;2024-01-11T08:25:05;-6.36;79.57
70830;SHT30;58451;51.550;7.208;2024-01-11T08:26:37;-6.31;79.58
70830;SHT30;58451;51.550;7.208;2024-01-11T08:28:09;-6.26;79.45
70830;SHT30;58451;51.550;7.208;2024-01-11T08:29:42;-6.21;79.38
70830;SHT30;58451;51.550;7.208;2024-01-11T08:31:14;-6.17;79.33
70830;SHT30;58451;51.550;7.208;2024-01-11T08:32:46;-6.14;79.55
70830;SHT30;58451;51.550;7.208;2024-01-11T08:34:18;-6.09;79.72
70830;SHT30;58451;51.550;7.208;2024-01-11T08:35:51;-6.05;79.68
70830;SHT30;58451;51.550;7.208;2024-01-11T08:37:22;-6.01;79.62
70830;SHT30;58451;51.550;7.208;2024-01-11T08:38:54;-5.97;79.72
70830;SHT30;58451;51.550;7.208;2024-01-11T08:40:26;-5.95;79.70
70830;SHT30;58451;51.550;7.208;2024-01-11T08:41:58;-5.92;79.77
70830;SHT30;58451;51.550;7.208;2024-01-11T08:43:30;-5.89;79.75
70830;SHT30;58451;51.550;7.208;2024-01-11T08:45:03;-5.86;79.73
70830;SHT30;58451;51.550;7.208;2024-01-11T08:46:38;-5.83;79.75
70830;SHT30;58451;51.550;7.208;2024-01-11T08:48:10;-5.80;79.67
70830;SHT30;58451;51.550;7.208;2024-01-11T08:49:42;-5.76;79.70
70830;SHT30;58451;51.550;7.208;2024-01-11T08:51:14;-5.75;79.77
70830;SHT30;58451;51.550;7.208;2024-01-11T08:52:46;-5.73;79.72
70830;SHT30;58451;51.550;7.208;2024-01-11T08:54:18;-5.70;79.63
70830;SHT30;58451;51.550;7.208;2024-01-11T08:55:52;-5.65;79.72
70830;SHT30;58451;51.550;7.208;2024-01-11T08:57:24;-5.64;79.60
70830;SHT30;58451;51.550;7.208;2024-01-11T08:58:56;-5.60;79.57
70830;SHT30;58451;51.550;7.208;2024-01-11T09:00:29;-5.53;79.53
70830;SHT30;58451;51.550;7.208;2024-01-11T09:02:01;-5.48;79.50
70830;SHT30;58451;51.550;7.208;2024-01-11T09:03:45;-5.41;79.47
70830;SHT30;58451;51.550;7.208;2024-01-11T09:05:19;-5.34;79.47
70830;SHT30;58451;51.550;7.208;2024-01-11T09:06:52;-5.29;79.42
70830;SHT30;58451;51.550;7.208;2024-01-11T09:08:24;-5.22;79.27
70830;SHT30;58451;51.550;7.208;2024-01-11T09:09:56;-5.16;79.15
70830;SHT30;58451;51.550;7.208;2024-01-11T09:11:28;-5.11;78.95
70830;SHT30;58451;51.550;7.208;2024-01-11T09:13:01;-5.05;78.95
70830;SHT30;58451;51.550;7.208;2024-01-11T09:14:33;-4.99;78.88
70830;SHT30;58451;51.550;7.208;2024-01-11T09:16:05;-4.93;78.85
70830;SHT30;58451;51.550;7.208;2024-01-11T09:17:38;-4.87;78.87
70830;SHT30;58451;51.550;7.208;2024-01-11T09:19:10;-4.80;78.67
70830;SHT30;58451;51.550;7.208;2024-01-11T09:20:42;-4.74;78.65
70830;SHT30;58451;51.550;7.208;2024-01-11T09:22:14;-4.66;78.75
70830;SHT30;58451;51.550;7.208;2024-01-11T09:23:46;-4.58;78.70
70830;SHT30;58451;51.550;7.208;2024-01-11T09:25:18;-4.51;78.55
70830;SHT30;58451;51.550;7.208;2024-01-11T09:26:50;-4.42;78.43
70830;SHT30;58451;51.550;7.208;2024-01-11T09:28:21;-4.35;78.45
70830;SHT30;58451;51.550;7.208;2024-01-11T09:29:53;-4.28;78.33
70830;SHT30;58451;51.550;7.208;2024-01-11T09:31:27;-4.20;78.20
70830;SHT30;58451;51.550;7.208;2024-01-11T09:32:59;-4.13;78.08
70830;SHT30;58451;51.550;7.208;2024-01-11T09:34:31;-4.08;77.97
70830;SHT30;58451;51.550;7.208;2024-01-11T09:36:04;-4.02;77.97
70830;SHT30;58451;51.550;7.208;2024-01-11T09:37:36;-3.98;77.87
70830;SHT30;58451;51.550;7.208;2024-01-11T09:39:08;-3.91;77.80
70830;SHT30;58451;51.550;7.208;2024-01-11T09:40:40;-3.87;77.35
70830;SHT30;58451;51.550;7.208;2024-01-11T09:42:12;-3.80;77.47
70830;SHT30;58451;51.550;7.208;2024-01-11T09:43:44;-3.73;77.47